sensor_id;sensor_type;location;lat;lon;timestamp;pressure;altitude;pressure_sealevel;temperature;humidity
4705;BME280;2366;51.332;6.610;2023-04-25T00:01:21;100865.28;;;11.01;62.00
4705;BME280;2366;51.332;6.610;2023-04-25T00:03:47;100866.63;;;11.08;61.86
4705;BME280;2366;51.332;6.610;2023-04-25T00:06:12;100855.72;;;11.13;61.54
4705;BME280;2366;51.332;6.610;2023-04-25T00:08:38;100860.56;;;11.21;61.75
4705;BME280;2366;51.332;6.610;2023-04-25T00:11:04;100867.97;;;11.16;61.36
4705;BME280;2366;51.332;6.610;2023-04-25T00:13:29;100867.50;;;11.23;61.22
4705;BME280;2366;51.332;6.610;2023-04-25T00:15:55;100865.50;;;11.27;61.25
4705;BME280;2366;51.332;6.610;2023-04-25T00:18:21;100867.84;;;11.31;60.88
4705;BME280;2366;51.332;6.610;2023-04-25T00:20:47;100867.78;;;11.33;60.86
4705;BME280;2366;51.332;6.610;2023-04-25T00:23:14;100863.41;;;11.32;60.72
4705;BME280;2366;51.332;6.610;2023-04-25T00:25:46;100872.31;;;11.31;60.62
4705;BME280;2366;51.332;6.610;2023-04-25T00:28:12;100869.56;;;11.33;60.18
4705;BME280;2366;51.332;6.610;2023-04-25T00:30:38;100869.56;;;11.33;60.68
4705;BME280;2366;51.332;6.610;2023-04-25T00:33:04;100872.13;;;11.34;60.46
4705;BME280;2366;51.332;6.610;2023-04-25T00:35:29;100867.50;;;11.23;60.35
4705;BME280;2366;51.332;6.610;2023-04-25T00:37:55;100879.72;;;11.26;60.61
4705;BME280;2366;51.332;6.610;2023-04-25T00:40:20;100873.81;;;11.21;60.85
4705;BME280;2366;51.332;6.610;2023-04-25T00:42:47;100879.88;;;11.23;60.50
4705;BME280;2366;51.332;6.610;2023-04-25T00:45:14;100881.78;;;11.21;60.70
4705;BME280;2366;51.332;6.610;2023-04-25T00:47:43;100879.34;;;11.32;60.57
4705;BME280;2366;51.332;6.610;2023-04-25T00:50:09;100876.09;;;11.27;60.60
4705;BME280;2366;51.332;6.610;2023-04-25T00:52:36;100879.34;;;11.32;60.99
4705;BME280;2366;51.332;6.610;2023-04-25T00:55:03;100871.47;;;11.30;60.49
4705;BME280;2366;51.332;6.610;2023-04-25T00:57:29;100872.31;;;11.31;60.97
4705;BME280;2366;51.332;6.610;2023-04-25T00:59:55;100875.53;;;11.36;60.61
4705;BME280;2366;51.332;6.610;2023-04-25T01:02:20;100865.78;;;11.37;60.57
4705;BME280;2366;51.332;6.610;2023-04-25T01:04:47;100869.09;;;11.40;60.45
4705;BME280;2366;51.332;6.610;2023-04-25T01:07:13;100871.28;;;11.34;60.67
4705;BME280;2366;51.332;6.610;2023-04-25T01:09:39;100871.38;;;11.32;60.72
4705;BME280;2366;51.332;6.610;2023-04-25T01:12:04;100880.28;;;11.31;61.03
4705;BME280;2366;51.332;6.610;2023-04-25T01:14:30;100876.69;;;11.32;60.68
4705;BME280;2366;51.332;6.610;2023-04-25T01:16:56;100883.88;;;11.16;61.33
4705;BME280;2366;51.332;6.610;2023-04-25T01:19:22;100878.13;;;10.79;62.40
4705;BME280;2366;51.332;6.610;2023-04-25T01:21:48;100883.22;;;10.67;63.08
4705;BME280;2366;51.332;6.610;2023-04-25T01:24:14;100883.22;;;10.67;62.98
4705;BME280;2366;51.332;6.610;2023-04-25T01:26:41;100881.16;;;10.73;63.23
4705;BME280;2366;51.332;6.610;2023-04-25T01:29:10;100882.59;;;10.78;63.00
4705;BME280;2366;51.332;6.610;2023-04-25T01:31:36;100881.16;;;10.73;63.14
4705;BME280;2366;51.332;6.610;2023-04-25T01:34:01;100886.44;;;10.73;63.15
4705;BME280;2366;51.332;6.610;2023-04-25T01:36:27;100882.00;;;10.73;63.61
4705;BME280;2366;51.332;6.610;2023-04-25T01:38:53;100888.19;;;10.74;63.61
4705;BME280;2366;51.332;6.610;2023-04-25T01:41:19;100889.19;;;10.71;63.42
4705;BME280;2366;51.332;6.610;2023-04-25T01:43:44;100894.69;;;10.68;63.85
4705;BME280;2366;51.332;6.610;2023-04-25T01:46:11;100890.16;;;10.70;63.69
4705;BME280;2366;51.332;6.610;2023-04-25T01:48:36;100895.38;;;10.72;63.71
4705;BME280;2366;51.332;6.610;2023-04-25T01:51:02;100899.63;;;10.74;63.60
4705;BME280;2366;51.332;6.610;2023-04-25T01:53:28;100902.19;;;10.76;63.51
4705;BME280;2366;51.332;6.610;2023-04-25T01:55:53;100903.81;;;10.78;63.44
4705;BME280;2366;51.332;6.610;2023-04-25T01:58:19;100909.41;;;10.74;63.67
4705;BME280;2366;51.332;6.610;2023-04-25T02:00:44;100908.50;;;10.73;63.09
4705;BME280;2366;51.332;6.610;2023-04-25T02:03:09;100908.56;;;10.57;63.47
4705;BME280;2366;51.332;6.610;2023-04-25T02:05:38;100901.81;;;10.52;63.68
4705;BME280;2366;51.332;6.610;2023-04-25T02:08:05;100910.56;;;10.38;63.88
4705;BME280;2366;51.332;6.610;2023-04-25T02:10:31;100912.19;;;10.40;63.98
4705;BME280;2366;51.332;6.610;2023-04-25T02:12:57;100910.31;;;10.42;63.86
4705;BME280;2366;51.332;6.610;2023-04-25T02:15:22;100903.19;;;10.43;63.93
4705;BME280;2366;51.332;6.610;2023-04-25T02:17:48;100914.94;;;10.39;64.09
4705;BME280;2366;51.332;6.610;2023-04-25T02:20:14;100915.09;;;10.36;64.18
4705;BME280;2366;51.332;6.610;2023-04-25T02:22:41;100923.22;;;10.48;64.18
4705;BME280;2366;51.332;6.610;2023-04-25T02:25:07;100916.28;;;10.46;63.80
4705;BME280;2366;51.332;6.610;2023-04-25T02:27:32;100913.72;;;10.44;64.11
4705;BME280;2366;51.332;6.610;2023-04-25T02:29:58;100918.34;;;10.41;64.44
4705;BME280;2366;51.332;6.610;2023-04-25T02:32:23;100912.19;;;10.40;64.33
4705;BME280;2366;51.332;6.610;2023-04-25T02:34:49;100917.69;;;10.37;64.34
4705;BME280;2366;51.332;6.610;2023-04-25T02:37:14;100918.81;;;10.63;63.57
4705;BME280;2366;51.332;6.610;2023-04-25T02:39:40;100926.78;;;10.63;63.40
4705;BME280;2366;51.332;6.610;2023-04-25T02:42:05;100922.09;;;10.53;63.56
4705;BME280;2366;51.332;6.610;2023-04-25T02:44:30;100925.69;;;10.36;63.89
4705;BME280;2366;51.332;6.610;2023-04-25T02:46:56;100923.56;;;10.26;64.36
4705;BME280;2366;51.332;6.610;2023-04-25T02:49:21;100928.59;;;10.15;64.96
4705;BME280;2366;51.332;6.610;2023-04-25T02:51:46;100921.25;;;10.04;65.16
4705;BME280;2366;51.332;6.610;2023-04-25T02:54:12;100924.56;;;9.92;65.66
4705;BME280;2366;51.332;6.610;2023-04-25T02:56:37;100920.47;;;9.86;66.21
4705;BME280;2366;51.332;6.610;2023-04-25T02:59:03;100922.34;;;9.84;66.46
4705;BME280;2366;51.332;6.610;2023-04-25T03:01:28;100920.31;;;9.90;66.56
4705;BME280;2366;51.332;6.610;2023-04-25T03:03:53;100919.97;;;9.96;66.59
4705;BME280;2366;51.332;6.610;2023-04-25T03:06:19;100925.78;;;10.02;66.55
4705;BME280;2366;51.332;6.610;2023-04-25T03:08:44;100926.09;;;10.12;66.80
4705;BME280;2366;51.332;6.610;2023-04-25T03:11:09;100923.91;;;10.20;66.37
4705;BME280;2366;51.332;6.610;2023-04-25T03:13:35;100922.59;;;10.27;66.44
4705;BME280;2366;51.332;6.610;2023-04-25T03:16:01;100926.13;;;10.28;66.07
4705;BME280;2366;51.332;6.610;2023-04-25T03:18:26;100928.28;;;10.21;66.12
4705;BME280;2366;51.332;6.610;2023-04-25T03:20:51;100929.72;;;10.11;66.15
4705;BME280;2366;51.332;6.610;2023-04-25T03:23:17;100929.63;;;9.97;66.40
4705;BME280;2366;51.332;6.610;2023-04-25T03:25:42;100931.06;;;9.86;67.01
4705;BME280;2366;51.332;6.610;2023-04-25T03:28:08;100937.03;;;9.74;67.10
4705;BME280;2366;51.332;6.610;2023-04-25T03:30:33;100929.34;;;9.70;67.59
4705;BME280;2366;51.332;6.610;2023-04-25T03:32:58;100933.09;;;9.65;67.75
4705;BME280;2366;51.332;6.610;2023-04-25T03:35:24;100929.59;;;9.65;67.92
4705;BME280;2366;51.332;6.610;2023-04-25T03:37:50;100930.59;;;9.62;68.11
4705;BME280;2366;51.332;6.610;2023-04-25T03:40:15;100940.00;;;9.68;68.03
4705;BME280;2366;51.332;6.610;2023-04-25T03:42:40;100933.75;;;9.69;68.35
4705;BME280;2366;51.332;6.610;2023-04-25T03:45:08;100934.41;;;9.74;68.58
4705;BME280;2366;51.332;6.610;2023-04-25T03:47:33;100937.81;;;9.76;68.47
4705;BME280;2366;51.332;6.610;2023-04-25T03:49:58;100937.50;;;9.82;68.05
4705;BME280;2366;51.332;6.610;2023-04-25T03:52:25;100935.16;;;9.76;68.22
4705;BME280;2366;51.332;6.610;2023-04-25T03:54:51;100943.25;;;9.73;68.22
4705;BME280;2366;51.332;6.610;2023-04-25T03:57:16;100939.84;;;9.71;68.26
4705;BME280;2366;51.332;6.610;2023-04-25T03:59:41;100942.34;;;9.74;68.46
4705;BME280;2366;51.332;6.610;2023-04-25T04:02:07;100950.09;;;9.77;68.03
4705;BME280;2366;51.332;6.610;2023-04-25T04:04:32;100954.47;;;9.78;68.07
4705;BME280;2366;51.332;6.610;2023-04-25T04:06:57;100955.41;;;9.77;67.94
4705;BME280;2366;51.332;6.610;2023-04-25T04:09:23;100953.84;;;9.73;67.41
4705;BME280;2366;51.332;6.610;2023-04-25T04:11:48;100960.59;;;9.63;68.01
4705;BME280;2366;51.332;6.610;2023-04-25T04:14:14;100962.94;;;9.52;68.50
4705;BME280;2366;51.332;6.610;2023-04-25T04:16:39;100962.25;;;9.48;68.44
4705;BME280;2366;51.332;6.610;2023-04-25T04:19:05;100966.06;;;9.42;68.17
4705;BME280;2366;51.332;6.610;2023-04-25T04:21:30;100963.66;;;9.38;68.24
4705;BME280;2366;51.332;6.610;2023-04-25T04:23:57;100958.69;;;9.32;68.66
4705;BME280;2366;51.332;6.610;2023-04-25T04:26:23;100961.28;;;9.33;68.92
4705;BME280;2366;51.332;6.610;2023-04-25T04:28:49;100963.91;;;9.33;68.72
4705;BME280;2366;51.332;6.610;2023-04-25T04:31:19;100969.28;;;9.32;69.04
4705;BME280;2366;51.332;6.610;2023-04-25T04:33:45;100971.16;;;9.30;68.91
4705;BME280;2366;51.332;6.610;2023-04-25T04:36:11;100971.06;;;9.31;68.64
4705;BME280;2366;51.332;6.610;2023-04-25T04:38:36;100970.22;;;9.31;68.98
4705;BME280;2366;51.332;6.610;2023-04-25T04:41:02;100972.63;;;9.35;69.21
4705;BME280;2366;51.332;6.610;2023-04-25T04:43:28;100973.41;;;9.37;68.90
4705;BME280;2366;51.332;6.610;2023-04-25T04:45:54;100977.94;;;9.35;69.14
4705;BME280;2366;51.332;6.610;2023-04-25T04:48:21;100976.59;;;9.44;68.91
4705;BME280;2366;51.332;6.610;2023-04-25T04:50:47;100986.94;;;9.49;68.53
4705;BME280;2366;51.332;6.610;2023-04-25T04:53:12;100988.41;;;9.54;68.39
4705;BME280;2366;51.332;6.610;2023-04-25T04:55:38;100993.22;;;9.63;68.25
4705;BME280;2366;51.332;6.610;2023-04-25T04:58:06;100988.03;;;9.78;68.22
4705;BME280;2366;51.332;6.610;2023-04-25T05:00:31;100994.63;;;10.36;67.83
4705;BME280;2366;51.332;6.610;2023-04-25T05:02:57;100997.06;;;10.71;66.27
4705;BME280;2366;51.332;6.610;2023-04-25T05:05:23;101004.91;;;10.88;64.59
4705;BME280;2366;51.332;6.610;2023-04-25T05:07:48;101012.22;;;11.29;64.33
4705;BME280;2366;51.332;6.610;2023-04-25T05:10:14;101015.16;;;11.69;62.66
4705;BME280;2366;51.332;6.610;2023-04-25T05:12:40;101011.72;;;12.10;61.54
4705;BME280;2366;51.332;6.610;2023-04-25T05:15:06;101011.34;;;12.30;59.92
4705;BME280;2366;51.332;6.610;2023-04-25T05:17:31;101015.56;;;12.06;58.91
4705;BME280;2366;51.332;6.610;2023-04-25T05:19:58;101013.28;;;12.00;59.45
4705;BME280;2366;51.332;6.610;2023-04-25T05:22:23;101016.59;;;12.59;58.16
4705;BME280;2366;51.332;6.610;2023-04-25T05:24:48;101013.84;;;13.01;56.86
4705;BME280;2366;51.332;6.610;2023-04-25T05:27:16;101021.75;;;13.81;55.02
4705;BME280;2366;51.332;6.610;2023-04-25T05:29:42;101028.19;;;14.77;53.37
4705;BME280;2366;51.332;6.610;2023-04-25T05:32:07;101026.44;;;15.71;48.28
4705;BME280;2366;51.332;6.610;2023-04-25T05:34:34;101032.06;;;17.12;46.49
4705;BME280;2366;51.332;6.610;2023-04-25T05:37:00;101033.03;;;17.11;44.36
4705;BME280;2366;51.332;6.610;2023-04-25T05:39:26;101037.13;;;15.82;46.15
4705;BME280;2366;51.332;6.610;2023-04-25T05:41:51;101044.41;;;14.74;48.34
4705;BME280;2366;51.332;6.610;2023-04-25T05:44:17;101031.34;;;13.70;50.79
4705;BME280;2366;51.332;6.610;2023-04-25T05:46:43;101038.63;;;12.88;51.88
4705;BME280;2366;51.332;6.610;2023-04-25T05:49:08;101051.16;;;11.89;55.39
4705;BME280;2366;51.332;6.610;2023-04-25T05:51:33;101048.75;;;11.99;55.57
4705;BME280;2366;51.332;6.610;2023-04-25T05:53:59;101051.03;;;12.05;56.09
4705;BME280;2366;51.332;6.610;2023-04-25T05:56:24;101052.19;;;12.15;55.57
4705;BME280;2366;51.332;6.610;2023-04-25T05:58:50;101048.84;;;12.11;55.37
4705;BME280;2366;51.332;6.610;2023-04-25T06:01:16;101049.19;;;12.48;54.97
4705;BME280;2366;51.332;6.610;2023-04-25T06:03:41;101052.22;;;12.57;53.83
4705;BME280;2366;51.332;6.610;2023-04-25T06:06:08;101050.69;;;12.67;54.04
4705;BME280;2366;51.332;6.610;2023-04-25T06:08:33;101063.31;;;12.49;53.30
4705;BME280;2366;51.332;6.610;2023-04-25T06:10:59;101060.28;;;13.09;52.93
4705;BME280;2366;51.332;6.610;2023-04-25T06:13:24;101075.13;;;14.17;48.95
4705;BME280;2366;51.332;6.610;2023-04-25T06:15:50;101079.97;;;14.99;47.18
4705;BME280;2366;51.332;6.610;2023-04-25T06:18:15;101079.47;;;15.18;47.12
4705;BME280;2366;51.332;6.610;2023-04-25T06:20:40;101078.19;;;14.50;47.52
4705;BME280;2366;51.332;6.610;2023-04-25T06:23:06;101082.47;;;16.52;44.19
4705;BME280;2366;51.332;6.610;2023-04-25T06:25:31;101076.38;;;15.93;44.02
4705;BME280;2366;51.332;6.610;2023-04-25T06:27:57;101081.25;;;15.99;43.26
4705;BME280;2366;51.332;6.610;2023-04-25T06:30:22;101087.69;;;15.15;44.73
4705;BME280;2366;51.332;6.610;2023-04-25T06:32:51;101085.66;;;15.18;45.34
4705;BME280;2366;51.332;6.610;2023-04-25T06:35:16;101095.06;;;14.37;47.46
4705;BME280;2366;51.332;6.610;2023-04-25T06:37:42;101081.03;;;14.23;47.90
4705;BME280;2366;51.332;6.610;2023-04-25T06:40:07;101094.72;;;14.92;47.82
4705;BME280;2366;51.332;6.610;2023-04-25T06:42:33;101084.00;;;16.88;43.09
4705;BME280;2366;51.332;6.610;2023-04-25T06:44:58;101097.81;;;18.21;41.24
4705;BME280;2366;51.332;6.610;2023-04-25T06:47:24;101101.03;;;20.68;37.38
4705;BME280;2366;51.332;6.610;2023-04-25T06:49:49;101096.16;;;21.71;33.96
4705;BME280;2366;51.332;6.610;2023-04-25T06:52:15;101097.25;;;22.12;32.92
4705;BME280;2366;51.332;6.610;2023-04-25T06:54:40;101103.03;;;20.28;34.15
4705;BME280;2366;51.332;6.610;2023-04-25T06:57:06;101100.63;;;21.62;33.79
4705;BME280;2366;51.332;6.610;2023-04-25T06:59:31;101102.69;;;22.21;32.97
4705;BME280;2366;51.332;6.610;2023-04-25T07:01:57;101107.63;;;22.68;30.71
4705;BME280;2366;51.332;6.610;2023-04-25T07:04:23;101105.34;;;22.12;30.28
4705;BME280;2366;51.332;6.610;2023-04-25T07:06:48;101105.00;;;21.63;31.04
4705;BME280;2366;51.332;6.610;2023-04-25T07:09:14;101108.88;;;18.68;35.05
4705;BME280;2366;51.332;6.610;2023-04-25T07:11:40;101105.44;;;16.88;38.29
4705;BME280;2366;51.332;6.610;2023-04-25T07:14:05;101108.31;;;15.48;41.83
4705;BME280;2366;51.332;6.610;2023-04-25T07:16:30;101114.03;;;15.19;43.26
4705;BME280;2366;51.332;6.610;2023-04-25T07:18:56;101116.25;;;16.87;41.29
4705;BME280;2366;51.332;6.610;2023-04-25T07:21:21;101119.38;;;18.10;39.62
4705;BME280;2366;51.332;6.610;2023-04-25T07:23:47;101112.03;;;17.49;39.06
4705;BME280;2366;51.332;6.610;2023-04-25T07:26:12;101112.28;;;15.67;42.07
4705;BME280;2366;51.332;6.610;2023-04-25T07:28:38;101117.84;;;16.67;43.06
4705;BME280;2366;51.332;6.610;2023-04-25T07:31:03;101124.44;;;20.67;35.78
4705;BME280;2366;51.332;6.610;2023-04-25T07:33:29;101125.69;;;23.18;31.83
4705;BME280;2366;51.332;6.610;2023-04-25T07:35:55;101127.25;;;24.67;28.80
4705;BME280;2366;51.332;6.610;2023-04-25T07:38:20;101121.75;;;25.98;27.28
4705;BME280;2366;51.332;6.610;2023-04-25T07:40:47;101133.25;;;26.15;26.55
4705;BME280;2366;51.332;6.610;2023-04-25T07:43:13;101132.97;;;24.72;27.29
4705;BME280;2366;51.332;6.610;2023-04-25T07:45:42;101126.81;;;22.48;29.66
4705;BME280;2366;51.332;6.610;2023-04-25T07:48:07;101134.97;;;21.78;30.84
4705;BME280;2366;51.332;6.610;2023-04-25T07:50:33;101136.28;;;19.32;34.01
4705;BME280;2366;51.332;6.610;2023-04-25T07:52:58;101134.34;;;19.82;33.48
4705;BME280;2366;51.332;6.610;2023-04-25T07:55:23;101141.81;;;20.36;32.42
4705;BME280;2366;51.332;6.610;2023-04-25T07:57:49;101130.69;;;17.50;35.82
4705;BME280;2366;51.332;6.610;2023-04-25T08:00:14;101144.03;;;16.18;38.55
4705;BME280;2366;51.332;6.610;2023-04-25T08:02:40;101143.41;;;15.44;40.10
4705;BME280;2366;51.332;6.610;2023-04-25T08:05:05;101149.56;;;15.92;38.62
4705;BME280;2366;51.332;6.610;2023-04-25T08:07:33;101155.88;;;18.22;35.41
4705;BME280;2366;51.332;6.610;2023-04-25T08:09:59;101155.53;;;20.52;31.07
4705;BME280;2366;51.332;6.610;2023-04-25T08:12:24;101168.00;;;21.98;29.01
4705;BME280;2366;51.332;6.610;2023-04-25T08:14:50;101169.66;;;24.35;26.81
4705;BME280;2366;51.332;6.610;2023-04-25T08:17:15;101181.75;;;25.66;24.35
4705;BME280;2366;51.332;6.610;2023-04-25T08:19:41;101186.63;;;23.96;25.56
4705;BME280;2366;51.332;6.610;2023-04-25T08:22:06;101179.53;;;23.87;25.38
4705;BME280;2366;51.332;6.610;2023-04-25T08:24:31;101177.78;;;24.91;25.76
4705;BME280;2366;51.332;6.610;2023-04-25T08:26:57;101180.09;;;25.02;23.67
4705;BME280;2366;51.332;6.610;2023-04-25T08:29:24;101180.25;;;22.10;26.52
4705;BME280;2366;51.332;6.610;2023-04-25T08:31:51;101177.78;;;18.88;31.27
4705;BME280;2366;51.332;6.610;2023-04-25T08:34:18;101177.75;;;17.32;35.13
4705;BME280;2366;51.332;6.610;2023-04-25T08:36:43;101188.97;;;22.04;30.75
4705;BME280;2366;51.332;6.610;2023-04-25T08:39:09;101179.75;;;21.35;29.18
4705;BME280;2366;51.332;6.610;2023-04-25T08:41:36;101185.97;;;19.47;32.83
4705;BME280;2366;51.332;6.610;2023-04-25T08:44:03;101188.34;;;18.19;33.76
4705;BME280;2366;51.332;6.610;2023-04-25T08:46:29;101196.31;;;16.78;36.35
4705;BME280;2366;51.332;6.610;2023-04-25T08:49:01;101193.03;;;16.30;36.65
4705;BME280;2366;51.332;6.610;2023-04-25T08:51:31;101204.84;;;15.19;37.87
4705;BME280;2366;51.332;6.610;2023-04-25T08:54:12;101205.50;;;18.58;34.16
4705;BME280;2366;51.332;6.610;2023-04-25T08:56:44;101209.91;;;20.56;30.42
4705;BME280;2366;51.332;6.610;2023-04-25T08:59:11;101219.44;;;23.68;27.22
4705;BME280;2366;51.332;6.610;2023-04-25T09:01:37;101226.22;;;24.22;26.01
4705;BME280;2366;51.332;6.610;2023-04-25T09:04:02;101216.88;;;20.48;29.82
4705;BME280;2366;51.332;6.610;2023-04-25T09:06:31;101226.69;;;19.23;31.42
4705;BME280;2366;51.332;6.610;2023-04-25T09:09:08;101225.81;;;18.51;32.21
4705;BME280;2366;51.332;6.610;2023-04-25T09:11:36;101230.31;;;18.72;31.26
4705;BME280;2366;51.332;6.610;2023-04-25T09:14:21;101228.06;;;19.87;31.19
4705;BME280;2366;51.332;6.610;2023-04-25T09:19:32;101241.69;;;20.52;28.32
4705;BME280;2366;51.332;6.610;2023-04-25T09:22:00;101251.91;;;18.39;32.46
4705;BME280;2366;51.332;6.610;2023-04-25T09:24:32;101255.06;;;17.91;31.65
4705;BME280;2366;51.332;6.610;2023-04-25T09:26:58;101250.00;;;17.22;32.93
4705;BME280;2366;51.332;6.610;2023-04-25T09:29:34;101249.06;;;17.55;32.83
4705;BME280;2366;51.332;6.610;2023-04-25T09:32:11;101249.97;;;17.77;31.47
4705;BME280;2366;51.332;6.610;2023-04-25T09:34:43;101244.75;;;18.08;31.92
4705;BME280;2366;51.332;6.610;2023-04-25T09:37:10;101252.97;;;18.58;31.67
4705;BME280;2366;51.332;6.610;2023-04-25T09:39:37;101252.97;;;18.58;30.13
4705;BME280;2366;51.332;6.610;2023-04-25T09:42:03;101256.19;;;17.77;32.97
4705;BME280;2366;51.332;6.610;2023-04-25T09:44:29;101266.22;;;16.87;33.91
4705;BME280;2366;51.332;6.610;2023-04-25T09:46:54;101265.66;;;16.59;34.62
4705;BME280;2366;51.332;6.610;2023-04-25T09:49:20;101265.22;;;16.07;35.12
4705;BME280;2366;51.332;6.610;2023-04-25T09:51:59;101273.38;;;16.17;36.55
4705;BME280;2366;51.332;6.610;2023-04-25T09:54:25;101272.16;;;16.79;35.28
4705;BME280;2366;51.332;6.610;2023-04-25T09:56:52;101281.50;;;16.51;34.24
4705;BME280;2366;51.332;6.610;2023-04-25T09:59:21;101285.88;;;15.81;35.07
4705;BME280;2366;51.332;6.610;2023-04-25T10:01:49;101289.50;;;15.43;36.66
4705;BME280;2366;51.332;6.610;2023-04-25T10:04:24;101294.94;;;14.92;35.99
4705;BME280;2366;51.332;6.610;2023-04-25T10:06:52;101292.06;;;14.95;36.13
4705;BME280;2366;51.332;6.610;2023-04-25T10:09:25;101305.53;;;15.80;35.38
4705;BME280;2366;51.332;6.610;2023-04-25T10:11:51;101304.00;;;16.48;34.73
4705;BME280;2366;51.332;6.610;2023-04-25T10:14:18;101300.72;;;16.67;32.71
4705;BME280;2366;51.332;6.610;2023-04-25T10:16:45;101306.50;;;16.38;31.64
4705;BME280;2366;51.332;6.610;2023-04-25T10:19:10;101306.63;;;16.95;32.59
4705;BME280;2366;51.332;6.610;2023-04-25T10:21:44;101316.81;;;17.57;32.36
4705;BME280;2366;51.332;6.610;2023-04-25T10:24:11;101319.03;;;17.41;31.51
4705;BME280;2366;51.332;6.610;2023-04-25T10:26:37;101314.63;;;16.37;31.37
4705;BME280;2366;51.332;6.610;2023-04-25T10:29:03;101311.50;;;16.08;33.06
4705;BME280;2366;51.332;6.610;2023-04-25T10:31:30;101305.81;;;16.59;33.06
4705;BME280;2366;51.332;6.610;2023-04-25T10:33:56;101308.34;;;16.96;32.09
4705;BME280;2366;51.332;6.610;2023-04-25T10:36:23;101314.84;;;16.69;32.75
4705;BME280;2366;51.332;6.610;2023-04-25T10:38:50;101306.16;;;16.90;33.66
4705;BME280;2366;51.332;6.610;2023-04-25T10:41:17;101301.03;;;16.87;33.75
4705;BME280;2366;51.332;6.610;2023-04-25T10:43:45;101310.75;;;16.76;33.52
4705;BME280;2366;51.332;6.610;2023-04-25T10:48:45;101309.16;;;17.53;34.14
4705;BME280;2366;51.332;6.610;2023-04-25T10:51:17;101303.19;;;17.49;33.10
4705;BME280;2366;51.332;6.610;2023-04-25T10:53:46;101303.03;;;18.59;32.61
4705;BME280;2366;51.332;6.610;2023-04-25T10:56:22;101295.41;;;18.64;31.88
4705;BME280;2366;51.332;6.610;2023-04-25T10:58:48;101299.88;;;18.33;32.28
4705;BME280;2366;51.332;6.610;2023-04-25T11:01:21;101298.34;;;17.98;32.78
4705;BME280;2366;51.332;6.610;2023-04-25T11:03:57;101307.28;;;16.52;33.58
4705;BME280;2366;51.332;6.610;2023-04-25T11:06:29;101305.94;;;16.57;34.02
4705;BME280;2366;51.332;6.610;2023-04-25T11:08:57;101310.16;;;16.37;32.77
4705;BME280;2366;51.332;6.610;2023-04-25T11:11:22;101316.97;;;16.41;34.55
4705;BME280;2366;51.332;6.610;2023-04-25T11:13:49;101315.50;;;16.95;33.75
4705;BME280;2366;51.332;6.610;2023-04-25T11:16:16;101318.06;;;16.97;34.11
4705;BME280;2366;51.332;6.610;2023-04-25T11:18:42;101315.88;;;17.24;32.94
4705;BME280;2366;51.332;6.610;2023-04-25T11:21:07;101311.69;;;17.54;32.50
4705;BME280;2366;51.332;6.610;2023-04-25T11:23:33;101307.53;;;16.71;33.81
4705;BME280;2366;51.332;6.610;2023-04-25T11:25:58;101307.63;;;17.71;34.20
4705;BME280;2366;51.332;6.610;2023-04-25T11:28:26;101298.88;;;17.69;31.63
4705;BME280;2366;51.332;6.610;2023-04-25T11:30:51;101298.09;;;17.23;32.58
4705;BME280;2366;51.332;6.610;2023-04-25T11:33:17;101301.03;;;17.86;33.42
4705;BME280;2366;51.332;6.610;2023-04-25T11:35:43;101310.97;;;18.28;31.71
4705;BME280;2366;51.332;6.610;2023-04-25T11:38:09;101304.78;;;17.95;33.03
4705;BME280;2366;51.332;6.610;2023-04-25T11:40:35;101303.19;;;17.49;32.79
4705;BME280;2366;51.332;6.610;2023-04-25T11:43:01;101307.09;;;17.34;33.69
4705;BME280;2366;51.332;6.610;2023-04-25T11:45:27;101303.88;;;17.62;34.20
4705;BME280;2366;51.332;6.610;2023-04-25T11:47:54;101306.31;;;17.54;34.41
4705;BME280;2366;51.332;6.610;2023-04-25T11:50:19;101314.00;;;16.69;34.71
4705;BME280;2366;51.332;6.610;2023-04-25T11:52:46;101318.63;;;16.20;34.92
4705;BME280;2366;51.332;6.610;2023-04-25T11:55:17;101339.69;;;15.27;38.60
4705;BME280;2366;51.332;6.610;2023-04-25T11:57:44;101325.19;;;14.39;41.83
4705;BME280;2366;51.332;6.610;2023-04-25T12:00:13;101343.31;;;14.34;42.96
4705;BME280;2366;51.332;6.610;2023-04-25T12:02:57;101342.75;;;14.16;43.43
4705;BME280;2366;51.332;6.610;2023-04-25T12:05:28;101343.34;;;14.07;43.89
4705;BME280;2366;51.332;6.610;2023-04-25T12:07:54;101351.41;;;13.93;44.21
4705;BME280;2366;51.332;6.610;2023-04-25T12:10:20;101343.47;;;14.06;43.47
4705;BME280;2366;51.332;6.610;2023-04-25T12:12:47;101344.44;;;14.17;42.70
4705;BME280;2366;51.332;6.610;2023-04-25T12:15:18;101359.16;;;14.50;42.46
4705;BME280;2366;51.332;6.610;2023-04-25T12:17:48;101357.56;;;15.37;42.18
4705;BME280;2366;51.332;6.610;2023-04-25T12:20:16;101355.44;;;15.92;40.24
4705;BME280;2366;51.332;6.610;2023-04-25T12:22:43;101356.69;;;16.23;40.21
4705;BME280;2366;51.332;6.610;2023-04-25T12:25:13;101357.28;;;15.92;39.93
4705;BME280;2366;51.332;6.610;2023-04-25T12:27:39;101355.69;;;16.49;39.69
4705;BME280;2366;51.332;6.610;2023-04-25T12:30:07;101347.97;;;16.79;38.89
4705;BME280;2366;51.332;6.610;2023-04-25T12:32:33;101353.25;;;17.03;37.90
4705;BME280;2366;51.332;6.610;2023-04-25T12:34:59;101351.63;;;16.43;38.05
4705;BME280;2366;51.332;6.610;2023-04-25T12:37:24;101347.13;;;16.43;39.34
4705;BME280;2366;51.332;6.610;2023-04-25T12:39:50;101353.47;;;16.42;38.12
4705;BME280;2366;51.332;6.610;2023-04-25T12:42:17;101345.59;;;16.17;38.52
4705;BME280;2366;51.332;6.610;2023-04-25T12:44:43;101353.22;;;15.86;38.84
4705;BME280;2366;51.332;6.610;2023-04-25T12:47:08;101353.66;;;15.80;39.46
4705;BME280;2366;51.332;6.610;2023-04-25T12:49:34;101365.28;;;15.92;41.00
4705;BME280;2366;51.332;6.610;2023-04-25T12:51:59;101373.53;;;16.13;39.79
4705;BME280;2366;51.332;6.610;2023-04-25T12:54:25;101366.13;;;16.40;39.87
4705;BME280;2366;51.332;6.610;2023-04-25T12:56:51;101371.03;;;16.58;40.14
4705;BME280;2366;51.332;6.610;2023-04-25T12:59:16;101368.16;;;16.72;38.53
4705;BME280;2366;51.332;6.610;2023-04-25T13:01:42;101376.13;;;15.65;38.68
4705;BME280;2366;51.332;6.610;2023-04-25T13:04:07;101374.44;;;15.64;40.06
4705;BME280;2366;51.332;6.610;2023-04-25T13:06:34;101374.63;;;16.46;39.87
4705;BME280;2366;51.332;6.610;2023-04-25T13:09:01;101365.81;;;16.92;38.17
4705;BME280;2366;51.332;6.610;2023-04-25T13:11:28;101372.97;;;16.56;37.75
4705;BME280;2366;51.332;6.610;2023-04-25T13:13:55;101368.63;;;16.66;37.09